Time;durP1;ratioP1;P1;durP2;ratioP2;P2;SDS_P1;SDS_P2;PMS_P1;PMS_P2;Temp;Humidity;BMP_temperature;BMP_pressure;BME280_temperature;BME280_humidity;BME280_pressure;Samples;Min_cycle;Max_cycle;Signal;HPM_P1;HPM_P2
2022/03/24 00:00:27;;;;;;;16.20;8.90;;;;;;;7.90;33.44;97537.72;107947;1271;42055;-74
2022/03/24 00:03:18;;;;;;;15.30;8.60;;;;;;;7.79;33.73;97537.80;107938;1271;41190;-74
2022/03/24 00:05:49;;;;;;;18.20;8.90;;;;;;;7.78;33.61;97535.41;107938;1274;27632;-74
2022/03/24 00:08:18;;;;;;;;;;;;;;;7.78;33.64;97531.97;107881;1274;48039;-74
2022/03/24 00:10:49;;;;;;;12.80;7.50;;;;;;;7.91;33.26;97530.66;107909;1273;32756;-74
2022/03/24 00:13:18;;;;;;;;;;;;;;;8.01;33.20;97527.02;107878;1274;44521;-74
2022/03/24 00:15:49;;;;;;;12.70;8.10;;;;;;;8.05;33.36;97527.48;107885;1274;41529;-74
2022/03/24 00:18:18;;;;;;;;;;;;;;;7.96;33.47;97523.20;107924;1274;38397;-74
2022/03/24 00:20:48;;;;;;;15.90;8.90;;;;;;;7.91;33.64;97522.48;107958;1274;28911;-74
2022/03/24 00:23:18;;;;;;;;;;;;;;;7.81;33.73;97521.09;107929;1273;40832;-74
2022/03/24 00:25:48;;;;;;;14.90;8.50;;;;;;;7.69;33.90;97519.09;107864;1274;43133;-74
2022/03/24 00:28:18;;;;;;;;;;;;;;;7.63;34.07;97519.99;107893;1274;42637;-74
2022/03/24 00:30:48;;;;;;;20.70;8.40;;;;;;;7.66;33.97;97519.77;107939;1271;40196;-73
2022/03/24 00:33:19;;;;;;;17.50;10.40;;;;;;;7.77;33.68;97522.29;107878;1273;43779;-74
2022/03/24 00:35:50;;;;;;;16.60;9.80;;;;;;;7.81;33.62;97526.11;107913;1271;42165;-74
2022/03/24 00:38:21;;;;;;;14.40;8.60;;;;;;;7.82;33.40;97522.11;108025;1271;28303;-74
2022/03/24 00:40:55;;;;;;;15.30;9.40;;;;;;;7.92;33.23;97519.91;108046;1271;27503;-74
2022/03/24 00:43:26;;;;;;;14.60;9.20;;;;;;;8.01;33.04;97523.22;107927;1271;46873;-75
2022/03/24 00:45:58;;;;;;;14.70;9.20;;;;;;;7.98;33.05;97518.20;107955;1271;31608;-74
2022/03/24 00:48:29;;;;;;;16.30;10.00;;;;;;;7.98;33.04;97512.71;108002;1271;40261;-74
2022/03/24 00:50:59;;;;;;;;;;;;;;;8.03;33.02;97510.44;108024;1271;33430;-74
2022/03/24 00:53:30;;;;;;;15.70;8.20;;;;;;;8.04;32.83;97513.27;107951;1271;44313;-74
2022/03/24 00:56:01;;;;;;;20.90;9.80;;;;;;;7.99;33.04;97513.31;107908;1274;34555;-74
2022/03/24 00:58:33;;;;;;;14.10;8.50;;;;;;;7.92;33.07;97513.58;107907;1271;45451;-74
2022/03/24 01:01:04;;;;;;;20.70;9.90;;;;;;;7.95;32.98;97508.81;107959;1271;39152;-73
2022/03/24 01:03:36;;;;;;;13.60;8.70;;;;;;;7.99;32.96;97507.51;107951;1270;43133;-74
2022/03/24 01:06:07;;;;;;;13.90;8.80;;;;;;;7.84;33.52;97506.73;108024;1271;44225;-74
2022/03/24 01:08:38;;;;;;;16.10;9.20;;;;;;;7.73;33.44;97509.21;107892;1271;42429;-74
2022/03/24 01:11:10;;;;;;;15.80;9.40;;;;;;;7.76;33.38;97509.70;107936;1273;45920;-73
2022/03/24 01:13:41;;;;;;;14.50;8.60;;;;;;;7.71;33.30;97513.21;107933;1272;42053;-74
2022/03/24 01:16:12;;;;;;;13.00;8.20;;;;;;;7.63;34.17;97516.19;107934;1271;35046;-74
2022/03/24 01:18:43;;;;;;;12.40;8.30;;;;;;;7.30;34.61;97513.55;107901;1271;42985;-74
2022/03/24 01:21:16;;;;;;;;;;;;;;;6.98;35.06;97514.73;107952;1270;48105;-74
2022/03/24 01:23:47;;;;;;;13.10;8.50;;;;;;;6.83;35.59;97513.02;107902;1271;41608;-74
2022/03/24 01:26:18;;;;;;;13.60;8.20;;;;;;;6.67;35.50;97511.48;107924;1271;36714;-73
2022/03/24 01:28:50;;;;;;;14.20;7.80;;;;;;;6.46;35.97;97516.50;107875;1273;41007;-74
2022/03/24 01:31:21;;;;;;;15.30;8.00;;;;;;;6.29;36.06;97512.17;107983;1273;42081;-73
2022/03/24 01:33:52;;;;;;;11.60;7.40;;;;;;;6.18;36.36;97507.89;107937;1273;45099;-74
2022/03/24 01:36:23;;;;;;;11.90;7.90;;;;;;;6.11;36.66;97508.42;108037;1271;30409;-74
2022/03/24 01:38:52;;;;;;;;;;;;;;;5.94;37.05;97503.73;108036;1271;33637;-74
2022/03/24 01:41:23;;;;;;;13.00;7.40;;;;;;;5.85;37.57;97496.29;108041;1270;31293;-74
2022/03/24 01:43:54;;;;;;;11.00;7.40;;;;;;;5.53;38.49;97496.59;107980;1272;73291;-73
2022/03/24 01:46:25;;;;;;;11.30;7.40;;;;;;;5.34;39.10;97496.05;107995;1273;31131;-74
2022/03/24 01:48:56;;;;;;;12.90;8.60;;;;;;;5.30;39.45;97498.05;107952;1271;31435;-74
2022/03/24 01:51:25;;;;;;;;;;;;;;;5.29;39.08;97496.33;107963;1272;33734;-74
2022/03/24 01:53:59;;;;;;;14.20;8.20;;;;;;;5.29;39.26;97495.69;107894;1273;31275;-75
2022/03/24 01:56:31;;;;;;;14.90;9.20;;;;;;;5.18;39.30;97500.35;107940;1271;31555;-73
2022/03/24 01:59:02;;;;;;;12.10;7.70;;;;;;;5.12;39.19;97500.11;107999;1271;29440;-74
2022/03/24 02:01:36;;;;;;;16.30;9.80;;;;;;;5.06;39.39;97498.77;107929;1273;41582;-74
2022/03/24 02:04:09;;;;;;;15.40;8.90;;;;;;;5.02;39.46;97500.91;107919;1273;41301;-73
2022/03/24 02:06:40;;;;;;;13.80;8.30;;;;;;;4.94;39.72;97503.04;107942;1271;51054;-73
2022/03/24 02:09:09;;;;;;;;;;;;;;;4.85;39.99;97500.59;107840;1270;211353;-73
2022/03/24 02:11:40;;;;;;;12.00;8.10;;;;;;;4.80;40.21;97498.59;107959;1271;44071;-73
2022/03/24 02:14:12;;;;;;;14.80;8.40;;;;;;;4.79;40.21;97499.53;107994;1271;29044;-73
2022/03/24 02:16:48;;;;;;;16.00;8.70;;;;;;;4.83;40.13;97499.70;107914;1271;48045;-73
2022/03/24 02:19:21;;;;;;;13.20;8.10;;;;;;;4.84;40.00;97503.60;107944;1273;41109;-74
2022/03/24 02:21:54;;;;;;;13.20;9.00;;;;;;;4.82;40.14;97501.98;107994;1273;44250;-73
2022/03/24 02:24:25;;;;;;;14.50;8.90;;;;;;;4.81;40.47;97504.88;107981;1271;43291;-74
2022/03/24 02:26:59;;;;;;;14.40;9.10;;;;;;;4.72;40.41;97499.23;107998;1271;30919;-74
2022/03/24 02:29:29;;;;;;;15.40;9.20;;;;;;;4.73;40.73;97499.30;107950;1271;40775;-73
2022/03/24 02:31:59;;;;;;;;;;;;;;;4.73;40.62;97498.46;107962;1273;31719;-73
2022/03/24 02:34:40;;;;;;;14.90;7.80;;;;;;;4.83;40.56;97498.73;107957;1270;33648;-74
2022/03/24 02:37:13;;;;;;;16.80;9.60;;;;;;;4.95;40.35;97495.71;107999;1271;31147;-74
2022/03/24 02:39:46;;;;;;;17.30;10.30;;;;;;;5.14;40.49;97495.36;107971;1271;35673;-73
2022/03/24 02:42:20;;;;;;;15.50;10.10;;;;;;;5.10;41.12;97493.10;108032;1271;44994;-73
2022/03/24 02:44:53;;;;;;;15.90;9.90;;;;;;;4.98;41.15;97496.08;107931;1271;44806;-73
2022/03/24 02:47:25;;;;;;;18.10;10.20;;;;;;;4.98;41.18;97499.80;107981;1271;42272;-73
2022/03/24 02:49:57;;;;;;;17.50;9.90;;;;;;;5.03;40.97;97494.35;107917;1271;43283;-74
2022/03/24 02:52:29;;;;;;;16.30;9.00;;;;;;;5.16;41.03;97493.55;107909;1273;37177;-74
2022/03/24 02:55:00;;;;;;;18.30;10.80;;;;;;;5.10;41.26;97491.05;107974;1271;48159;-73
2022/03/24 02:57:31;;;;;;;22.70;13.20;;;;;;;5.07;40.88;97491.31;108017;1271;41680;-73
2022/03/24 03:00:03;;;;;;;22.50;12.70;;;;;;;5.17;40.59;97497.98;107887;1271;42120;-73
2022/03/24 03:02:34;;;;;;;20.80;12.60;;;;;;;5.18;40.34;97499.92;107932;1271;43953;-73
2022/03/24 03:05:05;;;;;;;19.60;12.10;;;;;;;5.25;40.12;97499.75;107877;1271;44741;-73
2022/03/24 03:07:35;;;;;;;22.70;11.70;;;;;;;5.23;40.17;97505.33;107973;1270;29562;-74
2022/03/24 03:10:05;;;;;;;;;;;;;;;5.12;40.43;97503.13;107924;1271;44096;-73
2022/03/24 03:12:36;;;;;;;17.10;8.80;;;;;;;4.97;40.80;97507.54;107973;1271;38338;-74
2022/03/24 03:15:08;;;;;;;20.20;11.50;;;;;;;4.92;40.67;97513.44;107901;1271;38602;-73
2022/03/24 03:17:39;;;;;;;23.50;12.90;;;;;;;4.91;40.69;97517.62;107998;1272;41054;-73
2022/03/24 03:20:13;;;;;;;22.50;13.00;;;;;;;4.83;40.61;97517.39;107939;1271;43890;-73
2022/03/24 03:22:44;;;;;;;21.70;11.60;;;;;;;4.77;40.64;97518.54;108011;1271;44295;-73
2022/03/24 03:25:13;;;;;;;;;;;;;;;4.69;40.92;97520.36;107938;1271;40200;-73
2022/03/24 03:27:44;;;;;;;19.80;10.70;;;;;;;4.47;41.53;97519.53;107878;1271;40732;-73
2022/03/24 03:30:14;;;;;;;;;;;;;;;4.05;42.04;97518.45;108027;1271;27411;-73
2022/03/24 03:32:44;;;;;;;18.10;11.00;;;;;;;3.80;42.41;97517.62;107961;1271;43927;-73
2022/03/24 03:35:16;;;;;;;17.30;11.00;;;;;;;3.61;42.94;97514.55;107953;1271;41985;-73
2022/03/24 03:37:46;;;;;;;18.50;11.80;;;;;;;3.58;43.34;97516.35;107971;1271;39559;-73
2022/03/24 03:40:17;;;;;;;21.20;12.00;;;;;;;3.65;43.29;97509.93;107927;1271;40230;-73
2022/03/24 03:42:51;;;;;;;28.30;15.80;;;;;;;3.80;43.14;97510.20;107928;1271;48061;-73
2022/03/24 03:45:22;;;;;;;31.30;16.90;;;;;;;4.00;43.17;97509.88;107971;1271;38927;-73
2022/03/24 03:47:53;;;;;;;30.30;16.50;;;;;;;4.11;42.71;97521.64;107955;1271;42660;-73
2022/03/24 03:50:25;;;;;;;26.90;16.30;;;;;;;3.99;42.93;97524.21;108005;1271;30489;-73
2022/03/24 03:52:56;;;;;;;29.00;17.50;;;;;;;3.83;43.05;97529.83;108042;1270;39107;-73
2022/03/24 03:55:27;;;;;;;26.60;16.90;;;;;;;3.83;43.24;97527.45;107976;1270;39407;-74
2022/03/24 03:57:58;;;;;;;25.30;17.50;;;;;;;3.87;43.31;97534.13;107966;1270;44156;-74
2022/03/24 04:03:15;;;;;;;28.40;16.60;;;;;;;3.65;43.76;97536.96;107950;1270;33619;-73
2022/03/24 04:05:46;;;;;;;24.50;14.30;;;;;;;3.57;43.89;97538.94;107928;1270;41032;-73
2022/03/24 04:08:17;;;;;;;22.90;14.50;;;;;;;3.61;43.74;97539.28;107893;1270;38249;-74
2022/03/24 04:10:47;;;;;;;;;;;;;;;3.65;43.80;97539.98;107986;1271;31848;-73
2022/03/24 04:13:21;;;;;;;21.50;13.80;;;;;;;3.62;43.70;97542.50;107847;1272;55103;-73
2022/03/24 04:15:54;;;;;;;23.80;13.70;;;;;;;3.53;43.78;97543.00;107974;1271;36056;-73
2022/03/24 04:18:25;;;;;;;26.00;14.60;;;;;;;3.49;44.08;97550.15;107979;1271;38773;-73
2022/03/24 04:20:56;;;;;;;26.90;15.40;;;;;;;3.49;44.03;97549.83;107913;1271;43010;-75
2022/03/24 04:23:27;;;;;;;24.50;16.90;;;;;;;3.58;43.72;97551.40;107936;1271;36559;-74
2022/03/24 04:25:57;;;;;;;31.00;19.30;;;;;;;3.52;44.05;97553.52;107957;1271;33433;-74
2022/03/24 04:28:28;;;;;;;29.70;18.20;;;;;;;3.43;44.17;97560.75;107946;1271;44172;-73
2022/03/24 04:30:59;;;;;;;31.80;19.20;;;;;;;3.45;44.40;97561.96;107976;1270;42079;-74
2022/03/24 04:33:30;;;;;;;30.50;19.80;;;;;;;3.47;44.37;97567.27;107964;1270;27901;-74
2022/03/24 04:36:01;;;;;;;27.60;17.60;;;;;;;3.46;44.36;97565.98;107903;1271;47928;-73
2022/03/24 04:38:32;;;;;;;27.20;16.90;;;;;;;3.44;44.31;97569.23;107918;1271;42289;-73
2022/03/24 04:41:02;;;;;;;;;;;;;;;3.37;44.37;97567.51;107922;1271;43656;-73
2022/03/24 04:43:34;;;;;;;22.90;12.70;;;;;;;3.32;44.44;97573.35;107961;1270;42131;-73
2022/03/24 04:46:05;;;;;;;27.40;17.70;;;;;;;3.23;44.59;97576.96;107882;1271;45711;-73
2022/03/24 04:48:37;;;;;;;30.90;18.00;;;;;;;3.25;44.58;97579.63;107879;1272;35262;-73
2022/03/24 04:51:09;;;;;;;29.00;19.00;;;;;;;3.35;44.67;97576.23;107939;1271;31484;-73
2022/03/24 04:53:40;;;;;;;32.50;20.50;;;;;;;3.49;44.75;97573.64;107940;1271;44349;-73
2022/03/24 04:56:11;;;;;;;32.90;18.90;;;;;;;3.50;45.00;97574.10;107960;1271;45426;-73
2022/03/24 04:58:42;;;;;;;33.70;20.20;;;;;;;3.61;44.79;97576.88;107867;1271;42282;-73
2022/03/24 05:01:13;;;;;;;33.70;20.50;;;;;;;3.89;44.40;97575.74;107949;1270;27890;-73
2022/03/24 05:03:46;;;;;;;32.50;20.20;;;;;;;4.16;44.11;97581.34;107866;1271;32028;-73
2022/03/24 05:06:17;;;;;;;28.70;18.90;;;;;;;4.42;43.85;97580.40;107884;1271;38333;-73
2022/03/24 05:08:50;;;;;;;35.30;20.70;;;;;;;4.71;43.54;97586.05;107913;1271;40273;-73
2022/03/24 05:11:21;;;;;;;30.50;19.00;;;;;;;5.10;43.32;97585.38;108001;1271;40891;-73
2022/03/24 05:13:52;;;;;;;30.80;19.00;;;;;;;5.48;42.81;97579.42;107940;1271;48897;-73
2022/03/24 05:16:23;;;;;;;37.20;23.60;;;;;;;5.76;42.70;97579.52;107892;1271;52534;-73
2022/03/24 05:18:52;;;;;;;;;;;;;;;5.85;42.60;97580.39;107962;1273;31413;-73
2022/03/24 05:21:24;;;;;;;36.50;22.80;;;;;;;6.01;42.66;97580.58;107942;1271;47340;-73
2022/03/24 05:23:55;;;;;;;37.20;23.90;;;;;;;6.20;42.45;97585.90;107986;1271;35672;-73
2022/03/24 05:26:26;;;;;;;34.50;22.50;;;;;;;6.48;41.77;97588.99;107963;1271;32123;-73
2022/03/24 05:28:56;;;;;;;34.10;24.10;;;;;;;6.77;41.47;97585.55;107908;1271;30014;-74
2022/03/24 05:31:28;;;;;;;36.50;24.20;;;;;;;6.98;41.29;97582.85;107859;1271;39037;-73
2022/03/24 05:33:59;;;;;;;37.30;25.10;;;;;;;7.23;41.01;97591.55;107977;1270;41660;-73
2022/03/24 05:36:30;;;;;;;35.90;24.90;;;;;;;7.45;41.09;97591.89;107909;1272;48888;-74
2022/03/24 05:39:01;;;;;;;35.30;25.10;;;;;;;7.82;40.50;97592.11;107920;1270;45221;-73
2022/03/24 05:41:33;;;;;;;36.20;24.60;;;;;;;8.35;40.02;97591.58;107934;1271;40589;-73
2022/03/24 05:44:04;;;;;;;35.50;23.90;;;;;;;9.04;40.65;97604.68;107815;1271;43173;-73
2022/03/24 05:46:36;;;;;;;34.40;23.80;;;;;;;9.79;40.02;97599.63;107901;1271;28711;-73
2022/03/24 05:49:08;;;;;;;36.00;24.00;;;;;;;10.44;39.63;97598.58;107881;1272;42167;-73
2022/03/24 05:51:42;;;;;;;35.00;25.20;;;;;;;10.76;38.25;97597.55;107964;1271;42040;-73
2022/03/24 05:54:14;;;;;;;39.50;26.40;;;;;;;11.14;38.26;97598.65;107931;1271;45328;-73
2022/03/24 05:56:46;;;;;;;35.50;26.30;;;;;;;11.79;37.74;97599.22;107973;1271;37948;-73
2022/03/24 05:59:18;;;;;;;33.80;27.20;;;;;;;12.43;37.13;97602.27;107955;1271;40763;-73
2022/03/24 06:01:49;;;;;;;36.00;27.00;;;;;;;13.05;36.32;97601.90;107913;1270;43127;-73
2022/03/24 06:04:23;;;;;;;36.80;27.60;;;;;;;13.31;35.62;97605.60;107874;1271;45400;-73
2022/03/24 06:06:56;;;;;;;37.60;28.60;;;;;;;13.56;34.98;97604.08;107982;1270;43073;-73
2022/03/24 06:09:27;;;;;;;37.00;28.80;;;;;;;13.78;34.49;97600.94;107982;1271;30682;-74
2022/03/24 06:11:58;;;;;;;39.20;28.60;;;;;;;14.01;33.98;97601.19;107874;1271;40675;-74
2022/03/24 06:14:30;;;;;;;39.30;29.70;;;;;;;14.43;33.60;97601.30;107945;1270;44875;-74
2022/03/24 06:17:01;;;;;;;36.70;29.80;;;;;;;15.38;33.06;97597.86;107936;1271;29827;-74
2022/03/24 06:19:35;;;;;;;37.60;30.10;;;;;;;16.36;31.76;97597.14;107846;1273;40482;-73
2022/03/24 06:22:07;;;;;;;41.10;31.60;;;;;;;16.93;30.61;97595.17;107906;1271;48441;-74
2022/03/24 06:24:38;;;;;;;38.30;30.40;;;;;;;17.27;29.93;97597.61;107855;1273;35523;-74
2022/03/24 06:27:09;;;;;;;37.70;30.60;;;;;;;17.61;29.27;97604.45;107890;1270;36423;-73
2022/03/24 06:29:40;;;;;;;36.00;31.40;;;;;;;18.03;28.98;97609.25;107922;1273;31124;-73
2022/03/24 06:32:13;;;;;;;38.70;31.70;;;;;;;18.51;28.38;97606.32;107883;1271;50518;-73
2022/03/24 06:34:46;;;;;;;40.10;32.10;;;;;;;18.24;27.05;97614.37;107916;1271;31134;-74
2022/03/24 06:37:17;;;;;;;38.60;33.70;;;;;;;17.83;27.03;97616.20;107857;1273;42358;-74
2022/03/24 06:39:48;;;;;;;40.50;34.00;;;;;;;17.12;26.69;97612.83;107961;1271;28078;-74
2022/03/24 06:42:19;;;;;;;40.50;35.00;;;;;;;16.56;27.25;97609.58;107903;1273;42214;-74
2022/03/24 06:44:50;;;;;;;45.10;36.70;;;;;;;16.61;27.50;97610.84;107970;1268;36583;-74
2022/03/24 06:47:21;;;;;;;45.30;38.20;;;;;;;16.70;27.43;97612.11;107953;1270;31434;-73
2022/03/24 06:49:52;;;;;;;44.60;38.40;;;;;;;16.73;27.40;97611.14;107998;1273;30198;-74
2022/03/24 06:52:23;;;;;;;43.70;38.90;;;;;;;16.97;27.18;97614.66;107964;1271;33443;-74
2022/03/24 06:54:54;;;;;;;42.40;37.60;;;;;;;17.16;26.88;97611.32;107996;1271;45071;-74
2022/03/24 06:57:24;;;;;;;45.10;37.90;;;;;;;17.43;26.51;97610.86;107946;1271;41058;-74
2022/03/24 06:59:55;;;;;;;43.10;38.40;;;;;;;17.75;25.83;97615.29;107920;1271;44329;-74
2022/03/24 07:02:26;;;;;;;45.20;38.90;;;;;;;17.84;25.11;97613.14;107954;1270;41083;-75
2022/03/24 07:04:57;;;;;;;42.20;37.40;;;;;;;17.57;24.66;97613.71;107880;1271;43441;-75
2022/03/24 07:07:28;;;;;;;43.00;38.40;;;;;;;17.61;24.78;97612.89;107886;1273;30917;-75
2022/03/24 07:09:59;;;;;;;44.40;37.50;;;;;;;17.67;24.35;97615.27;107908;1273;41211;-74
2022/03/24 07:12:30;;;;;;;42.70;38.10;;;;;;;17.96;24.39;97620.67;107916;1271;44986;-74
2022/03/24 07:15:01;;;;;;;43.70;38.40;;;;;;;18.12;24.02;97619.13;107907;1273;33346;-74
2022/03/24 07:17:32;;;;;;;45.10;39.90;;;;;;;18.34;24.19;97618.31;107889;1273;31557;-74
2022/03/24 07:20:03;;;;;;;43.10;38.50;;;;;;;18.57;23.77;97615.80;107852;1273;45903;-74
2022/03/24 07:22:38;;;;;;;42.70;37.90;;;;;;;19.35;24.48;97610.35;107893;1273;35986;-74
2022/03/24 07:25:11;;;;;;;43.00;38.00;;;;;;;20.77;23.80;97604.44;107944;1271;43183;-74
2022/03/24 07:27:42;;;;;;;45.20;37.70;;;;;;;21.93;23.30;97608.45;107958;1271;40356;-75
2022/03/24 07:30:13;;;;;;;42.50;37.90;;;;;;;22.87;22.58;97601.66;107951;1270;31687;-75
2022/03/24 07:32:44;;;;;;;42.10;37.70;;;;;;;23.03;22.18;97599.73;107983;1271;30515;-75
2022/03/24 07:35:18;;;;;;;40.70;36.50;;;;;;;23.35;21.61;97602.50;107904;1271;40911;-75
2022/03/24 07:37:50;;;;;;;40.00;35.80;;;;;;;24.16;21.29;97595.05;107971;1271;30757;-75
2022/03/24 07:40:23;;;;;;;40.20;36.00;;;;;;;24.94;20.82;97597.66;107952;1270;47794;-75
2022/03/24 07:42:57;;;;;;;40.20;36.10;;;;;;;24.99;20.19;97601.27;107990;1268;43268;-74
2022/03/24 07:45:28;;;;;;;40.80;36.60;;;;;;;25.10;19.75;97599.34;107993;1271;40365;-75
2022/03/24 07:48:17;;;;;;;41.60;37.30;;;;;;;24.50;18.83;97597.83;107920;1273;29756;-75
2022/03/24 07:50:49;;;;;;;42.60;38.00;;;;;;;23.78;19.30;97600.67;107898;1271;49246;-75
2022/03/24 07:53:40;;;;;;;43.50;38.90;;;;;;;23.77;19.58;97597.76;107949;1271;46956;-74
2022/03/24 07:56:11;;;;;;;41.20;37.10;;;;;;;24.00;19.80;97598.23;107972;1270;41065;-75
2022/03/24 07:58:42;;;;;;;44.20;39.50;;;;;;;24.50;19.42;97595.16;107912;1271;41599;-75
2022/03/24 08:01:13;;;;;;;42.20;37.90;;;;;;;25.04;19.18;97592.58;107900;1271;36369;-75
2022/03/24 08:03:44;;;;;;;46.70;41.70;;;;;;;24.03;17.77;97595.39;107878;1272;33288;-75
2022/03/24 08:06:18;;;;;;;52.30;47.10;;;;;;;22.41;18.97;97602.30;107855;1273;44556;-74
2022/03/24 08:08:49;;;;;;;48.90;43.90;;;;;;;22.42;19.99;97606.91;107955;1271;36061;-74
2022/03/24 08:11:21;;;;;;;51.40;46.00;;;;;;;22.40;19.21;97605.81;107944;1271;29357;-74
2022/03/24 08:13:54;;;;;;;45.80;41.10;;;;;;;22.19;20.46;97610.05;108033;1271;29690;-74
2022/03/24 08:16:27;;;;;;;46.70;40.20;;;;;;;23.38;20.00;97609.25;107948;1271;34788;-74
2022/03/24 08:18:58;;;;;;;45.20;40.40;;;;;;;23.11;19.24;97612.91;107962;1271;42320;-74
2022/03/24 08:21:29;;;;;;;45.00;40.40;;;;;;;23.25;19.51;97614.30;107965;1271;34324;-75
2022/03/24 08:24:00;;;;;;;45.20;40.30;;;;;;;23.02;18.56;97616.91;107938;1271;30636;-74
2022/03/24 08:26:31;;;;;;;43.30;38.50;;;;;;;21.70;19.86;97613.40;107907;1271;42176;-75
2022/03/24 08:29:02;;;;;;;46.10;41.40;;;;;;;21.54;20.00;97613.01;107901;1271;43434;-74
2022/03/24 08:31:33;;;;;;;45.80;41.00;;;;;;;21.84;20.48;97617.46;107918;1271;32565;-74
2022/03/24 08:34:04;;;;;;;49.70;43.10;;;;;;;22.73;20.06;97620.23;107843;1273;40475;-74
2022/03/24 08:36:35;;;;;;;47.00;41.70;;;;;;;22.79;20.20;97622.91;107953;1270;41756;-74
2022/03/24 08:39:06;;;;;;;47.70;42.50;;;;;;;23.44;20.15;97625.23;107880;1271;45865;-74
2022/03/24 08:41:37;;;;;;;44.30;39.50;;;;;;;24.21;20.00;97622.45;108000;1270;39976;-74
2022/03/24 08:44:10;;;;;;;47.90;38.30;;;;;;;24.38;18.34;97619.94;107942;1270;31569;-74
2022/03/24 08:46:40;;;;;;;49.70;40.30;;;;;;;22.33;18.76;97624.52;108000;1272;33444;-74
2022/03/24 08:49:12;;;;;;;44.40;39.60;;;;;;;21.50;19.77;97628.35;107959;1270;46338;-73
2022/03/24 08:51:44;;;;;;;46.30;40.90;;;;;;;21.62;20.50;97629.67;108002;1270;42627;-74
2022/03/24 08:54:15;;;;;;;51.20;39.80;;;;;;;22.05;19.70;97629.61;107961;1271;36083;-74
2022/03/24 08:56:46;;;;;;;48.30;40.10;;;;;;;21.30;20.66;97631.92;107900;1273;43219;-74
2022/03/24 08:59:17;;;;;;;47.10;39.40;;;;;;;21.98;20.96;97631.70;107856;1273;47045;-74
2022/03/24 09:01:48;;;;;;;44.20;37.50;;;;;;;22.46;20.67;97636.41;107892;1271;38890;-74
2022/03/24 09:04:23;;;;;;;48.80;39.40;;;;;;;21.72;20.01;97635.23;107992;1270;44139;-73
2022/03/24 09:06:55;;;;;;;49.30;40.30;;;;;;;21.42;21.42;97634.29;108028;1271;31897;-73
2022/03/24 09:09:25;;;;;;;50.20;40.60;;;;;;;21.65;20.72;97637.52;107983;1271;41462;-74
2022/03/24 09:11:56;;;;;;;48.90;39.00;;;;;;;20.92;21.01;97641.54;108015;1271;37616;-74
2022/03/24 09:14:28;;;;;;;52.00;38.40;;;;;;;20.41;21.53;97641.30;107917;1270;101377;-74
2022/03/24 09:16:59;;;;;;;45.10;37.10;;;;;;;19.65;22.46;97638.73;108019;1270;29785;-74
2022/03/24 09:19:30;;;;;;;48.40;38.40;;;;;;;19.01;22.62;97646.38;107896;1271;43509;-74
2022/03/24 09:22:02;;;;;;;46.70;35.90;;;;;;;17.28;24.15;97646.52;107928;1271;42203;-74
2022/03/24 09:24:34;;;;;;;46.50;36.30;;;;;;;15.75;25.74;97651.26;107935;1271;41844;-74
2022/03/24 09:27:05;;;;;;;47.40;35.90;;;;;;;14.50;27.49;97653.86;107938;1271;42207;-73
2022/03/24 09:29:36;;;;;;;44.80;33.00;;;;;;;13.73;29.09;97650.90;107901;1271;53248;-74
2022/03/24 09:32:12;;;;;;;47.20;35.20;;;;;;;13.17;30.31;97647.95;107883;1271;40081;-74
2022/03/24 09:34:43;;;;;;;47.50;34.60;;;;;;;13.00;30.37;97649.67;107937;1270;41116;-74
2022/03/24 09:37:17;;;;;;;47.30;34.80;;;;;;;12.97;30.99;97650.25;107981;1270;44194;-74
2022/03/24 09:39:48;;;;;;;47.50;34.20;;;;;;;12.90;31.52;97647.55;107890;1270;41634;-73
2022/03/24 09:42:21;;;;;;;42.60;34.10;;;;;;;13.18;31.27;97640.98;108023;1270;40914;-74
2022/03/24 09:44:52;;;;;;;42.80;31.60;;;;;;;13.20;31.03;97642.69;107933;1273;51788;-74
2022/03/24 09:47:25;;;;;;;46.80;34.30;;;;;;;13.24;30.97;97640.61;107955;1271;44517;-74
2022/03/24 09:49:57;;;;;;;49.50;35.70;;;;;;;13.34;30.92;97640.44;107962;1271;45267;-73
2022/03/24 09:52:28;;;;;;;50.20;34.30;;;;;;;13.37;30.76;97641.17;107971;1270;39034;-74
2022/03/24 09:54:59;;;;;;;42.60;32.60;;;;;;;13.49;30.95;97641.07;107929;1271;41855;-74
2022/03/24 09:57:30;;;;;;;40.80;31.10;;;;;;;13.99;30.88;97637.45;107983;1270;30745;-74
2022/03/24 10:00:01;;;;;;;44.80;33.90;;;;;;;14.33;30.09;97639.98;107914;1271;43394;-74
2022/03/24 10:02:32;;;;;;;42.20;31.20;;;;;;;14.63;30.00;97639.45;107961;1272;40057;-74
2022/03/24 10:05:04;;;;;;;41.90;32.10;;;;;;;14.87;29.48;97639.92;107875;1273;39060;-73
2022/03/24 10:07:45;;;;;;;47.60;34.20;;;;;;;14.89;29.48;97638.37;107958;1271;40888;-74
2022/03/24 10:10:27;;;;;;;44.60;33.60;;;;;;;15.07;29.72;97637.63;107967;1271;34535;-73
2022/03/24 10:12:58;;;;;;;45.00;33.70;;;;;;;15.28;29.54;97638.75;107929;1271;43470;-74
2022/03/24 10:15:29;;;;;;;43.50;31.60;;;;;;;15.31;28.74;97639.46;107895;1272;42411;-74
2022/03/24 10:18:00;;;;;;;40.40;31.90;;;;;;;14.74;29.13;97643.10;107919;1270;38529;-74
2022/03/24 10:20:33;;;;;;;41.90;31.20;;;;;;;14.74;29.57;97648.27;107972;1270;41607;-74
2022/03/24 10:23:06;;;;;;;41.90;30.00;;;;;;;14.84;29.06;97651.86;107949;1270;43808;-73
2022/03/24 10:25:40;;;;;;;43.30;30.50;;;;;;;14.76;29.15;97653.27;107913;1271;46511;-74
2022/03/24 10:28:13;;;;;;;37.70;27.80;;;;;;;15.04;29.31;97646.95;108003;1270;30395;-74
2022/03/24 10:30:50;;;;;;;42.30;28.50;;;;;;;15.31;28.79;97647.91;107901;1271;41575;-73
2022/03/24 10:33:32;;;;;;;36.20;26.40;;;;;;;15.36;28.48;97649.42;107975;1270;39385;-74
2022/03/24 10:36:13;;;;;;;37.00;28.30;;;;;;;15.21;27.73;97647.27;107888;1271;46820;-74
2022/03/24 10:38:47;;;;;;;34.80;23.50;;;;;;;14.94;27.76;97646.23;107988;1271;30049;-74
2022/03/24 10:41:21;;;;;;;31.80;24.40;;;;;;;14.86;27.89;97643.42;108001;1271;34480;-74
2022/03/24 10:43:53;;;;;;;32.10;20.50;;;;;;;14.88;27.41;97639.20;107962;1270;32089;-74
2022/03/24 10:46:26;;;;;;;26.70;18.50;;;;;;;14.89;27.60;97638.05;107927;1271;49935;-73
2022/03/24 10:48:58;;;;;;;28.00;19.20;;;;;;;15.22;27.45;97636.56;107875;1271;45277;-75
2022/03/24 10:51:31;;;;;;;25.00;18.60;;;;;;;15.46;27.07;97637.12;107889;1273;41506;-75
2022/03/24 10:54:22;;;;;;;27.30;18.40;;;;;;;15.66;26.93;97633.86;107921;1273;32988;-74
2022/03/24 10:57:01;;;;;;;25.30;16.80;;;;;;;15.85;26.03;97632.52;107976;1270;41044;-74
2022/03/24 10:59:37;;;;;;;21.70;15.30;;;;;;;15.72;25.13;97632.57;107916;1270;39661;-74
2022/03/24 11:02:09;;;;;;;22.10;15.90;;;;;;;15.53;24.34;97631.65;107927;1270;42208;-74
2022/03/24 11:04:40;;;;;;;22.50;16.60;;;;;;;15.27;24.79;97626.52;107907;1273;64815;-74
2022/03/24 11:07:11;;;;;;;22.30;16.60;;;;;;;15.43;25.32;97626.35;107922;1270;40821;-74
2022/03/24 11:09:43;;;;;;;23.50;16.70;;;;;;;15.56;24.94;97625.52;107882;1271;46262;-74
2022/03/24 11:12:32;;;;;;;25.00;18.40;;;;;;;15.37;24.67;97620.70;107922;1271;33458;-74
2022/03/24 11:15:05;;;;;;;26.30;18.90;;;;;;;15.15;25.27;97616.71;107956;1271;42193;-75
2022/03/24 11:17:41;;;;;;;27.50;18.60;;;;;;;15.22;25.57;97618.04;107898;1273;42339;-74
2022/03/24 11:20:36;;;;;;;28.40;18.80;;;;;;;15.34;25.28;97616.20;107958;1271;30793;-74
2022/03/24 11:23:18;;;;;;;29.30;19.40;;;;;;;15.39;25.29;97613.41;107910;1271;48764;-74
2022/03/24 11:25:53;;;;;;;32.90;21.10;;;;;;;15.52;25.68;97614.83;107936;1270;44603;-74
2022/03/24 11:28:24;;;;;;;25.90;18.40;;;;;;;15.47;25.41;97610.92;108008;1271;30423;-74
2022/03/24 11:30:55;;;;;;;30.80;19.30;;;;;;;15.39;24.95;97604.48;107962;1271;41341;-74
2022/03/24 11:33:28;;;;;;;26.30;17.60;;;;;;;15.40;25.00;97601.05;107991;1270;39832;-74
2022/03/24 11:36:00;;;;;;;30.60;19.90;;;;;;;15.44;24.76;97599.30;107869;1273;40900;-74
2022/03/24 11:38:31;;;;;;;24.70;18.50;;;;;;;15.49;25.14;97604.05;107920;1271;42551;-74
2022/03/24 11:41:06;;;;;;;26.00;17.60;;;;;;;15.76;25.17;97600.48;107921;1270;43370;-74
2022/03/24 11:43:42;;;;;;;24.60;17.70;;;;;;;16.01;24.82;97598.98;107912;1271;39302;-74